Time;durP1;ratioP1;P1;durP2;ratioP2;P2;SDS_P1;SDS_P2;PMS_P1;PMS_P2;Temp;Humidity;BMP_temperature;BMP_pressure;BME280_temperature;BME280_humidity;BME280_pressure;Samples;Min_cycle;Max_cycle;Signal;HPM_P1;HPM_P2
2022/11/11 00:01:22;;;;;;;11.73;3.25;;;13.00;99.90;;;;;;4950681;29;20035;-95
2022/11/11 00:03:48;;;;;;;10.48;3.40;;;13.00;99.90;;;;;;4948222;29;20055;-95
2022/11/11 00:06:15;;;;;;;8.95;3.05;;;13.00;99.90;;;;;;4945084;29;20049;-95
2022/11/11 00:08:48;;;;;;;9.65;3.08;;;13.00;99.90;;;;;;4942472;29;20031;-93
2022/11/11 00:11:15;;;;;;;13.18;4.05;;;13.10;99.90;;;;;;4958851;28;20102;-94
2022/11/11 00:13:42;;;;;;;7.60;3.47;;;13.10;99.90;;;;;;4957091;29;20447;-93
2022/11/11 00:16:16;;;;;;;11.30;3.70;;;13.10;99.90;;;;;;4957638;29;20051;-94
2022/11/11 00:27:16;;;;;;;14.07;5.28;;;13.10;99.90;;;;;;4977409;28;20030;-92
2022/11/11 00:29:45;;;;;;;14.77;4.47;;;13.10;99.90;;;;;;4960616;28;20573;-94
2022/11/11 00:32:25;;;;;;;9.30;3.83;;;13.10;99.90;;;;;;4962022;28;20023;-94
2022/11/11 00:37:37;;;;;;;9.13;3.90;;;13.10;99.90;;;;;;4977558;28;20103;-95
2022/11/11 00:40:24;;;;;;;10.07;3.10;;;13.20;99.90;;;;;;4966491;28;20057;-94
2022/11/11 00:42:52;;;;;;;9.75;4.13;;;13.20;99.90;;;;;;4964668;28;20069;-94
2022/11/11 00:45:17;;;;;;;10.43;3.45;;;13.10;99.90;;;;;;4966358;28;20054;-92
2022/11/11 00:53:19;;;;;;;6.25;2.97;;;13.20;99.90;;;;;;4982191;28;20033;-95
2022/11/11 00:55:44;;;;;;;8.02;2.67;;;13.20;99.90;;;;;;4971738;28;20034;-94
2022/11/11 00:58:10;;;;;;;9.18;3.67;;;13.10;99.90;;;;;;4960687;28;20161;-93
2022/11/11 01:00:36;;;;;;;7.53;3.00;;;13.10;99.90;;;;;;4964874;28;20019;-95
2022/11/11 01:03:02;;;;;;;7.32;3.30;;;13.20;99.90;;;;;;4958698;28;20027;-95
2022/11/11 01:05:28;;;;;;;8.88;3.80;;;13.10;99.90;;;;;;4968061;28;20051;-95
2022/11/11 01:07:54;;;;;;;6.97;2.90;;;13.20;99.90;;;;;;4985923;28;20043;-94
2022/11/11 01:10:37;;;;;;;8.77;3.45;;;13.20;99.90;;;;;;4966905;29;20055;-94
2022/11/11 01:13:12;;;;;;;7.97;3.10;;;13.10;99.90;;;;;;4987786;28;20025;-93
2022/11/11 01:15:44;;;;;;;9.20;3.38;;;13.20;99.90;;;;;;4970452;28;20037;-94
2022/11/11 01:18:15;;;;;;;12.10;3.28;;;13.20;99.90;;;;;;4967709;28;20123;-96
2022/11/11 01:20:41;;;;;;;11.20;3.55;;;13.20;99.90;;;;;;4969409;28;20026;-94
2022/11/11 01:23:09;;;;;;;10.27;3.83;;;13.20;99.90;;;;;;4967642;28;20093;-96
2022/11/11 01:25:36;;;;;;;11.02;3.10;;;13.10;99.90;;;;;;4976499;28;20027;-95
2022/11/11 01:28:02;;;;;;;10.40;3.50;;;13.20;99.90;;;;;;4967314;28;20035;-96
2022/11/11 01:30:31;;;;;;;6.80;2.80;;;13.10;99.90;;;;;;4960908;28;20035;-94
2022/11/11 01:32:57;;;;;;;7.43;2.90;;;13.20;99.90;;;;;;4963810;28;20019;-94
2022/11/11 01:35:22;;;;;;;8.75;3.05;;;13.20;99.90;;;;;;4962114;28;20031;-95
2022/11/11 01:37:49;;;;;;;7.82;2.67;;;13.20;99.90;;;;;;4962385;28;20026;-94
2022/11/11 01:40:15;;;;;;;11.65;3.65;;;13.30;99.90;;;;;;4983387;28;20033;-94
2022/11/11 01:43:11;;;;;;;9.30;3.22;;;13.20;99.90;;;;;;4962901;28;20030;-94
2022/11/11 01:45:44;;;;;;;6.97;2.80;;;13.30;99.90;;;;;;4964881;28;20046;-92
2022/11/11 01:51:09;;;;;;;9.35;2.10;;;13.30;99.90;;;;;;4995570;28;20091;-94
2022/11/11 01:53:35;;;;;;;4.60;2.22;;;13.30;99.90;;;;;;4971872;28;20031;-94
2022/11/11 01:56:02;;;;;;;4.82;2.38;;;13.30;99.90;;;;;;4967745;28;20073;-94
2022/11/11 01:58:29;;;;;;;7.15;2.15;;;13.30;99.90;;;;;;4981013;28;20026;-94
2022/11/11 02:00:57;;;;;;;5.03;2.30;;;13.30;99.90;;;;;;4965184;29;20118;-94
2022/11/11 02:03:27;;;;;;;5.03;2.55;;;13.30;99.90;;;;;;4964851;28;20406;-93
2022/11/11 02:05:55;;;;;;;8.10;1.85;;;13.30;99.90;;;;;;4968293;28;20022;-93
2022/11/11 02:08:31;;;;;;;6.25;1.80;;;13.30;99.90;;;;;;4972465;28;20038;-93
2022/11/11 02:11:09;;;;;;;8.13;1.90;;;13.30;99.90;;;;;;4986165;28;20022;-95
2022/11/11 02:16:28;;;;;;;5.82;1.90;;;13.40;99.90;;;;;;4985063;28;20436;-96
2022/11/11 02:18:54;;;;;;;8.95;2.10;;;13.40;99.90;;;;;;4968805;28;20114;-94
2022/11/11 02:21:29;;;;;;;5.03;1.65;;;13.40;99.90;;;;;;4968207;28;20018;-94
2022/11/11 02:24:16;;;;;;;7.78;1.70;;;13.40;99.90;;;;;;4967827;28;20130;-95
2022/11/11 02:26:43;;;;;;;7.60;3.25;;;13.50;99.90;;;;;;4971146;28;20051;-94
2022/11/11 02:29:16;;;;;;;5.13;1.95;;;13.40;99.90;;;;;;4982611;28;20035;-95
2022/11/11 02:31:42;;;;;;;6.13;2.28;;;13.50;99.90;;;;;;4983448;28;20069;-95
2022/11/11 02:34:07;;;;;;;5.22;2.25;;;13.50;99.90;;;;;;4966319;28;20086;-95
2022/11/11 02:36:34;;;;;;;9.48;2.55;;;13.50;99.90;;;;;;4964122;28;20039;-94
2022/11/11 02:39:00;;;;;;;7.57;2.40;;;13.50;99.90;;;;;;4970116;28;20015;-94
2022/11/11 02:44:10;;;;;;;4.93;2.03;;;13.50;99.90;;;;;;4982620;28;20046;-95
2022/11/11 02:46:36;;;;;;;5.68;2.05;;;13.40;99.90;;;;;;4966016;28;20035;-95
2022/11/11 02:49:01;;;;;;;7.45;1.98;;;13.50;99.90;;;;;;4986804;28;20034;-94
2022/11/11 02:51:27;;;;;;;6.22;1.70;;;13.50;99.90;;;;;;4970236;28;20034;-94
2022/11/11 02:53:57;;;;;;;6.75;1.92;;;13.50;99.90;;;;;;4970725;28;20038;-95
2022/11/11 02:59:08;;;;;;;10.57;2.55;;;13.50;99.90;;;;;;4981977;28;20257;-94
2022/11/11 03:01:34;;;;;;;6.22;1.83;;;13.50;99.90;;;;;;4964202;28;20094;-95
2022/11/11 03:03:59;;;;;;;4.97;1.50;;;13.50;99.90;;;;;;4982191;28;20489;-96
2022/11/11 03:06:25;;;;;;;7.30;1.80;;;13.40;99.90;;;;;;4972765;28;20035;-92
2022/11/11 03:08:51;;;;;;;5.82;1.73;;;13.40;99.90;;;;;;4968202;28;20051;-95
2022/11/11 03:11:26;;;;;;;3.75;1.52;;;13.40;99.90;;;;;;4966366;28;20053;-95
2022/11/11 03:13:57;;;;;;;6.32;2.63;;;13.50;99.90;;;;;;4965435;28;20054;-95
2022/11/11 03:19:08;;;;;;;4.95;1.60;;;13.40;99.90;;;;;;4985159;28;20086;-94
2022/11/11 03:21:33;;;;;;;7.82;1.88;;;13.40;99.90;;;;;;4987347;28;20014;-94
2022/11/11 03:23:59;;;;;;;7.50;1.92;;;13.50;99.90;;;;;;4985765;28;20027;-95
2022/11/11 03:26:25;;;;;;;6.82;2.08;;;13.40;99.90;;;;;;4967845;28;20019;-95
2022/11/11 03:28:50;;;;;;;3.30;1.77;;;13.40;99.90;;;;;;4963349;28;20034;-95
2022/11/11 03:31:17;;;;;;;5.55;1.85;;;13.50;99.90;;;;;;4961378;28;20058;-95
2022/11/11 03:33:43;;;;;;;8.18;2.15;;;13.50;99.90;;;;;;4964614;28;20038;-95
2022/11/11 03:36:08;;;;;;;6.13;1.98;;;13.50;99.90;;;;;;4981675;28;20142;-94
2022/11/11 03:38:34;;;;;;;7.45;2.58;;;13.50;99.90;;;;;;4966669;28;20115;-95
2022/11/11 03:41:00;;;;;;;6.13;2.10;;;13.50;99.90;;;;;;4971900;28;20039;-94
2022/11/11 03:43:28;;;;;;;4.97;2.10;;;13.50;99.90;;;;;;4964469;28;20024;-94
2022/11/11 03:45:56;;;;;;;3.97;1.95;;;13.50;99.90;;;;;;4966651;29;20106;-95
2022/11/11 03:48:23;;;;;;;5.20;1.90;;;13.50;99.90;;;;;;4968200;28;20031;-94
2022/11/11 03:50:49;;;;;;;6.10;1.60;;;13.50;99.90;;;;;;4984629;28;20026;-94
2022/11/11 03:53:19;;;;;;;7.10;1.67;;;13.50;99.90;;;;;;4966778;28;20058;-95
2022/11/11 03:55:45;;;;;;;4.07;1.50;;;13.50;99.90;;;;;;4968199;28;20111;-93
2022/11/11 03:58:11;;;;;;;4.78;1.67;;;13.50;99.90;;;;;;4960064;28;20063;-94
2022/11/11 04:00:37;;;;;;;2.75;1.35;;;13.50;99.90;;;;;;4968705;28;20031;-93
2022/11/11 04:11:27;;;;;;;3.35;1.27;;;13.50;99.90;;;;;;4983669;28;20046;-94
2022/11/11 04:16:44;;;;;;;11.27;1.80;;;13.50;99.90;;;;;;4986319;28;20499;-93
2022/11/11 04:21:55;;;;;;;5.43;1.90;;;13.50;99.90;;;;;;4983876;28;20062;-95
2022/11/11 04:27:11;;;;;;;4.72;1.70;;;13.40;99.90;;;;;;4984474;28;20054;-93
2022/11/11 04:29:37;;;;;;;4.93;1.85;;;13.50;99.90;;;;;;4965321;28;20039;-95
2022/11/11 04:35:06;;;;;;;7.22;1.85;;;13.40;99.90;;;;;;4985767;28;20069;-94
2022/11/11 04:37:36;;;;;;;7.82;1.83;;;13.50;99.90;;;;;;4980438;28;20019;-93
2022/11/11 04:42:47;;;;;;;3.72;1.63;;;13.50;99.90;;;;;;4997123;28;20026;-93
2022/11/11 04:45:32;;;;;;;3.50;1.77;;;13.50;99.90;;;;;;4980390;28;20055;-93
2022/11/11 04:48:01;;;;;;;5.03;2.10;;;13.40;99.90;;;;;;4968018;28;20049;-95
2022/11/11 04:50:48;;;;;;;7.50;2.00;;;13.40;99.90;;;;;;4965516;28;20035;-93
2022/11/11 04:53:14;;;;;;;4.18;1.60;;;13.40;99.90;;;;;;4980722;28;20027;-96
2022/11/11 04:58:28;;;;;;;4.90;1.55;;;13.40;99.90;;;;;;4985183;28;20041;-94
2022/11/11 05:00:54;;;;;;;4.65;1.75;;;13.40;99.90;;;;;;4968442;28;20029;-94
2022/11/11 05:03:23;;;;;;;5.07;1.92;;;13.40;99.90;;;;;;4972420;28;20022;-94
2022/11/11 05:08:55;;;;;;;4.88;2.03;;;13.40;99.90;;;;;;4987501;28;20118;-95
2022/11/11 05:11:28;;;;;;;5.18;2.15;;;13.40;99.90;;;;;;4968721;29;20024;-95
2022/11/11 05:22:18;;;;;;;3.05;1.38;;;13.40;99.90;;;;;;4990297;28;20025;-93
2022/11/11 05:27:29;;;;;;;3.17;1.40;;;13.30;99.90;;;;;;4988342;28;20053;-94
2022/11/11 05:29:56;;;;;;;6.07;1.60;;;13.30;99.90;;;;;;4969118;28;20038;-96
2022/11/11 05:32:22;;;;;;;3.13;1.90;;;13.30;99.90;;;;;;4969605;28;20035;-94
2022/11/11 05:34:48;;;;;;;2.30;1.23;;;13.30;99.90;;;;;;4985580;28;20061;-94
2022/11/11 05:37:15;;;;;;;4.15;1.50;;;13.30;99.90;;;;;;4964538;28;20050;-96
2022/11/11 05:39:41;;;;;;;6.55;1.45;;;13.20;99.90;;;;;;4969775;28;20110;-95
2022/11/11 05:42:08;;;;;;;4.25;2.28;;;13.30;99.90;;;;;;4967444;28;20253;-94
2022/11/11 05:44:33;;;;;;;5.20;1.35;;;13.20;99.90;;;;;;4963463;28;20126;-95
2022/11/11 05:46:59;;;;;;;2.80;1.40;;;13.20;99.90;;;;;;4962472;28;20049;-94
2022/11/11 05:49:25;;;;;;;5.03;1.60;;;13.20;99.90;;;;;;4983717;28;20058;-95
2022/11/11 05:52:00;;;;;;;4.88;1.80;;;13.20;99.90;;;;;;4961692;29;20016;-94
2022/11/11 05:54:29;;;;;;;4.13;1.42;;;13.20;99.90;;;;;;4963621;28;20026;-95
2022/11/11 05:56:55;;;;;;;4.78;1.58;;;13.20;99.90;;;;;;4964894;28;20034;-94
2022/11/11 05:59:22;;;;;;;3.80;1.65;;;13.20;99.90;;;;;;4957490;28;20043;-94
2022/11/11 06:01:47;;;;;;;4.35;1.48;;;13.20;99.90;;;;;;4966016;28;20077;-94
2022/11/11 06:04:15;;;;;;;3.92;1.33;;;13.20;99.90;;;;;;4962258;28;20480;-94
2022/11/11 06:06:41;;;;;;;2.63;1.40;;;13.20;99.90;;;;;;4982156;28;20098;-94
2022/11/11 06:09:07;;;;;;;6.25;1.83;;;13.20;99.90;;;;;;4962589;28;20062;-94
2022/11/11 06:11:35;;;;;;;5.25;1.60;;;13.20;99.90;;;;;;4962011;28;20531;-94
2022/11/11 06:14:01;;;;;;;1.98;1.48;;;13.20;99.90;;;;;;4962104;28;20030;-95
2022/11/11 06:16:27;;;;;;;2.67;1.13;;;13.30;99.90;;;;;;4967299;28;20033;-94
2022/11/11 06:18:53;;;;;;;6.50;1.50;;;13.30;99.90;;;;;;4963119;28;20542;-94
2022/11/11 06:21:19;;;;;;;4.43;1.40;;;13.30;99.90;;;;;;4962025;29;20047;-94
2022/11/11 06:23:44;;;;;;;1.90;0.93;;;13.30;99.90;;;;;;4982551;28;20034;-94
2022/11/11 06:26:11;;;;;;;1.58;0.90;;;13.40;99.90;;;;;;4967575;28;20046;-94
2022/11/11 06:28:55;;;;;;;3.20;1.38;;;13.30;99.90;;;;;;4966083;28;20043;-94
2022/11/11 06:31:26;;;;;;;3.90;1.45;;;13.30;99.90;;;;;;4965909;28;20047;-94
2022/11/11 06:33:52;;;;;;;;;;;13.30;99.90;;;;;;4977782;28;20015;-95
2022/11/11 06:36:19;;;;;;;4.90;1.30;;;13.30;99.90;;;;;;4969546;28;19917;-94
2022/11/11 06:38:46;;;;;;;3.00;0.98;;;13.30;99.90;;;;;;4990097;28;20034;-94
2022/11/11 06:41:13;;;;;;;3.05;1.45;;;13.30;99.90;;;;;;4969433;28;20023;-94
2022/11/11 06:43:39;;;;;;;5.63;1.25;;;13.30;99.90;;;;;;4969557;28;20038;-93
2022/11/11 06:46:05;;;;;;;4.50;1.10;;;13.30;99.90;;;;;;4969882;28;20069;-95
2022/11/11 06:48:31;;;;;;;4.95;1.20;;;13.30;99.90;;;;;;4965248;28;20026;-96
2022/11/11 06:51:06;;;;;;;4.05;1.40;;;13.30;99.90;;;;;;4963752;28;20038;-94
2022/11/11 06:53:32;;;;;;;2.88;1.40;;;13.30;99.90;;;;;;4967468;28;20082;-93
2022/11/11 06:55:58;;;;;;;3.92;1.35;;;13.30;99.90;;;;;;4981504;28;20058;-95
2022/11/11 06:58:24;;;;;;;7.88;1.60;;;13.30;99.90;;;;;;4964261;28;20034;-94
2022/11/11 07:00:50;;;;;;;3.85;1.60;;;13.20;99.90;;;;;;4967314;28;20033;-94
2022/11/11 07:03:25;;;;;;;3.22;1.30;;;13.20;99.90;;;;;;4981770;28;20042;-95
2022/11/11 07:05:51;;;;;;;2.70;1.45;;;13.30;99.90;;;;;;4965218;28;20027;-94
2022/11/11 07:08:17;;;;;;;5.05;1.23;;;13.30;99.90;;;;;;4965218;28;20081;-94
2022/11/11 07:10:48;;;;;;;1.85;1.10;;;13.30;99.90;;;;;;4969480;28;20058;-93
2022/11/11 07:13:14;;;;;;;2.13;1.10;;;13.30;99.90;;;;;;4987183;28;20122;-95
2022/11/11 07:15:42;;;;;;;6.60;1.30;;;13.30;99.90;;;;;;4973038;28;20027;-93
2022/11/11 07:18:08;;;;;;;4.75;1.35;;;13.30;99.90;;;;;;4971420;28;20057;-94
2022/11/11 07:20:34;;;;;;;5.10;1.55;;;13.30;99.90;;;;;;4974443;28;20034;-95
2022/11/11 07:22:59;;;;;;;5.50;1.63;;;13.30;99.90;;;;;;4970683;28;20115;-95
2022/11/11 07:25:28;;;;;;;4.18;1.45;;;13.30;99.90;;;;;;4969944;28;20023;-93
2022/11/11 07:27:53;;;;;;;3.85;1.48;;;13.30;99.90;;;;;;4974348;28;20123;-95
2022/11/11 07:30:19;;;;;;;6.13;1.92;;;13.30;99.90;;;;;;4975622;28;20046;-92
2022/11/11 07:32:50;;;;;;;2.97;1.98;;;13.30;99.90;;;;;;4975715;28;20027;-95
2022/11/11 07:35:17;;;;;;;6.57;2.15;;;13.30;99.90;;;;;;4990691;28;20034;-94
2022/11/11 07:37:43;;;;;;;4.78;2.25;;;13.30;99.90;;;;;;4977641;28;20037;-94
2022/11/11 07:40:11;;;;;;;6.88;2.10;;;13.30;99.90;;;;;;4983304;28;20027;-92
2022/11/11 07:42:43;;;;;;;4.82;2.10;;;13.30;99.90;;;;;;4976645;28;20058;-94
2022/11/11 07:45:11;;;;;;;6.07;2.13;;;13.30;99.90;;;;;;4972602;28;20119;-95
2022/11/11 07:47:37;;;;;;;4.95;1.85;;;13.30;99.90;;;;;;4970328;28;20034;-93
2022/11/11 07:50:05;;;;;;;5.00;1.67;;;13.30;99.90;;;;;;4968269;29;20099;-95
2022/11/11 07:52:31;;;;;;;7.07;1.85;;;13.30;99.90;;;;;;4970662;28;20030;-94
2022/11/11 07:54:57;;;;;;;6.65;2.30;;;13.30;99.90;;;;;;4969068;29;20035;-94
2022/11/11 07:57:23;;;;;;;7.90;1.70;;;13.30;99.90;;;;;;4968883;28;20555;-96
2022/11/11 07:59:50;;;;;;;8.68;1.80;;;13.30;99.90;;;;;;4972464;28;20031;-94
2022/11/11 08:02:15;;;;;;;3.35;1.23;;;13.30;99.90;;;;;;4987761;28;20027;-96
2022/11/11 08:04:41;;;;;;;6.72;2.45;;;13.30;99.90;;;;;;4978720;28;20018;-96
2022/11/11 08:07:07;;;;;;;2.67;1.48;;;13.30;99.90;;;;;;4975769;28;20041;-95
2022/11/11 08:09:33;;;;;;;7.60;1.45;;;13.30;99.90;;;;;;4972128;28;20039;-94
2022/11/11 08:14:47;;;;;;;7.35;1.30;;;13.30;99.90;;;;;;4991896;28;20066;-94
2022/11/11 08:17:15;;;;;;;2.30;1.00;;;13.40;99.90;;;;;;4973763;28;20030;-94
2022/11/11 08:19:40;;;;;;;1.38;1.05;;;13.40;99.90;;;;;;4974784;28;20081;-94
2022/11/11 08:22:09;;;;;;;2.97;1.08;;;13.40;99.90;;;;;;4967059;28;20034;-96
2022/11/11 08:24:35;;;;;;;6.22;1.23;;;13.40;99.90;;;;;;4970347;28;20038;-96
2022/11/11 08:27:00;;;;;;;4.82;1.55;;;13.40;99.90;;;;;;4966787;28;20108;-94
2022/11/11 08:29:26;;;;;;;4.15;1.27;;;13.40;99.90;;;;;;4980823;28;20138;-95
2022/11/11 08:31:54;;;;;;;6.20;1.30;;;13.50;99.90;;;;;;4960083;28;20023;-94
2022/11/11 08:34:20;;;;;;;2.78;1.10;;;13.50;99.90;;;;;;4965197;28;20031;-96
2022/11/11 08:36:49;;;;;;;4.85;1.50;;;13.50;99.90;;;;;;4968368;28;20035;-95
2022/11/11 08:39:14;;;;;;;5.50;1.50;;;13.50;99.90;;;;;;4984341;28;20113;-96
2022/11/11 08:41:40;;;;;;;6.90;1.67;;;13.50;99.90;;;;;;4965777;28;20069;-94
2022/11/11 08:44:06;;;;;;;3.22;1.05;;;13.50;99.90;;;;;;4966213;28;20421;-95
2022/11/11 08:46:31;;;;;;;3.92;1.23;;;13.50;99.90;;;;;;4964248;29;20658;-95
2022/11/11 08:48:57;;;;;;;8.30;1.80;;;13.50;99.90;;;;;;4953782;29;20035;-94
2022/11/11 08:51:23;;;;;;;3.33;1.67;;;13.60;99.90;;;;;;4959062;29;20078;-95
2022/11/11 08:53:49;;;;;;;9.13;1.60;;;13.60;99.90;;;;;;4944582;29;20027;-95
2022/11/11 08:56:15;;;;;;;2.45;0.88;;;13.60;99.90;;;;;;4943050;29;20103;-95
2022/11/11 08:58:41;;;;;;;3.25;1.42;;;13.60;99.90;;;;;;4977067;28;20135;-94
2022/11/11 09:01:12;;;;;;;5.60;1.50;;;13.60;99.90;;;;;;4948568;29;20065;-95
2022/11/11 09:03:38;;;;;;;2.08;1.48;;;13.60;99.90;;;;;;4951358;29;20155;-95
2022/11/11 09:06:04;;;;;;;6.35;1.60;;;13.60;99.90;;;;;;4941006;29;20043;-95
2022/11/11 09:08:29;;;;;;;9.20;1.95;;;13.60;99.90;;;;;;4940240;29;20078;-95
2022/11/11 09:10:57;;;;;;;6.75;1.20;;;13.60;99.90;;;;;;4940963;29;20126;-94
2022/11/11 09:13:23;;;;;;;7.25;1.75;;;13.60;99.90;;;;;;4939828;29;20027;-95
2022/11/11 09:15:48;;;;;;;4.25;1.80;;;13.70;99.90;;;;;;4954359;29;20046;-95
2022/11/11 09:18:14;;;;;;;6.30;2.05;;;13.70;99.90;;;;;;4947471;29;20126;-93
2022/11/11 09:20:40;;;;;;;5.30;1.20;;;13.70;99.90;;;;;;4946635;29;20043;-93
2022/11/11 09:23:05;;;;;;;5.18;1.10;;;13.70;99.90;;;;;;4947083;29;20031;-95
2022/11/11 09:25:31;;;;;;;7.05;1.30;;;13.70;99.90;;;;;;4978703;28;20147;-94
2022/11/11 09:27:59;;;;;;;4.93;1.17;;;13.70;99.90;;;;;;4944239;29;20034;-94
2022/11/11 09:30:26;;;;;;;6.22;1.48;;;13.70;99.90;;;;;;4952331;29;20007;-94
2022/11/11 09:32:52;;;;;;;6.32;1.70;;;13.70;99.90;;;;;;4944279;29;20023;-94
2022/11/11 09:35:18;;;;;;;5.88;1.75;;;13.80;99.90;;;;;;4948164;29;20034;-94
2022/11/11 09:37:58;;;;;;;3.88;1.40;;;13.80;99.90;;;;;;4946845;29;20019;-95
2022/11/11 09:40:26;;;;;;;6.88;1.17;;;13.80;99.90;;;;;;4968599;28;20043;-95
2022/11/11 09:43:34;;;;;;;2.70;1.40;;;13.80;99.90;;;;;;4968228;28;20067;-95
2022/11/11 09:46:26;;;;;;;4.45;1.13;;;13.90;99.90;;;;;;4967497;29;20082;-95
2022/11/11 09:49:06;;;;;;;4.07;1.30;;;14.00;99.90;;;;;;4955754;29;20039;-94
2022/11/11 09:52:15;;;;;;;4.40;1.60;;;14.00;99.90;;;;;;4961991;29;20035;-96
2022/11/11 09:55:00;;;;;;;3.90;1.58;;;14.00;99.90;;;;;;4892573;29;20047;-94
2022/11/11 09:57:44;;;;;;;5.78;2.17;;;14.00;99.90;;;;;;4913320;29;20071;-95
2022/11/11 10:00:27;;;;;;;19.30;7.38;;;14.10;99.90;;;;;;4935007;29;20038;-95
2022/11/11 10:03:04;;;;;;;14.77;5.00;;;14.10;99.90;;;;;;4931637;29;20138;-95
2022/11/11 10:05:55;;;;;;;18.88;6.00;;;14.10;99.90;;;;;;4911152;29;20068;-94
2022/11/11 10:08:30;;;;;;;17.52;6.07;;;14.10;99.90;;;;;;4921278;29;20373;-94
2022/11/11 10:10:58;;;;;;;13.07;4.03;;;14.10;99.90;;;;;;4913374;29;20067;-92
2022/11/11 10:13:33;;;;;;;8.55;3.40;;;14.10;99.90;;;;;;4918681;29;20068;-95
2022/11/11 10:16:39;;;;;;;6.25;2.05;;;14.10;99.90;;;;;;4916114;29;20035;-94
2022/11/11 10:19:07;;;;;;;7.57;2.80;;;14.10;99.90;;;;;;4902206;29;20062;-94
2022/11/11 10:22:01;;;;;;;3.75;1.52;;;14.10;99.90;;;;;;4888806;29;20024;-95
2022/11/11 10:25:03;;;;;;;3.75;1.33;;;14.20;99.90;;;;;;4905612;29;20037;-94
2022/11/11 10:27:29;;;;;;;4.72;1.40;;;14.20;99.90;;;;;;4938229;29;20039;-94
2022/11/11 10:29:55;;;;;;;3.10;1.13;;;14.20;99.90;;;;;;4967580;28;20023;-93
2022/11/11 10:32:24;;;;;;;5.47;1.70;;;14.20;99.90;;;;;;4962649;29;20027;-96
2022/11/11 10:35:03;;;;;;;;;;;;;;;;;;;;;
2022/11/11 10:37:40;;;;;;;3.47;1.85;;;14.30;99.90;;;;;;4967249;29;20310;-95
2022/11/11 10:40:23;;;;;;;7.05;2.55;;;14.30;99.90;;;;;;4955864;29;20016;-94
2022/11/11 10:42:49;;;;;;;4.30;1.40;;;14.30;99.90;;;;;;4962455;28;20035;-94
2022/11/11 10:45:50;;;;;;;5.00;1.45;;;14.30;99.90;;;;;;4956493;29;20062;-93
2022/11/11 10:48:28;;;;;;;4.70;1.40;;;14.40;99.90;;;;;;4953769;29;20039;-95
2022/11/11 10:50:58;;;;;;;6.22;1.80;;;14.40;99.90;;;;;;4951525;29;20020;-96
2022/11/11 10:53:43;;;;;;;8.40;2.35;;;14.40;99.90;;;;;;4949722;29;20027;-95
2022/11/11 10:56:28;;;;;;;7.10;2.13;;;14.40;99.90;;;;;;4971858;29;20037;-95
2022/11/11 10:59:16;;;;;;;5.80;1.75;;;14.40;99.90;;;;;;4971403;28;20039;-95
2022/11/11 11:01:47;;;;;;;3.83;1.25;;;14.40;99.90;;;;;;4966087;29;20083;-95
2022/11/11 11:04:25;;;;;;;6.00;1.60;;;14.40;99.90;;;;;;4980102;28;20036;-96
2022/11/11 11:06:53;;;;;;;7.25;1.70;;;14.40;99.90;;;;;;4974033;28;20047;-94
2022/11/11 11:09:28;;;;;;;6.30;1.90;;;14.40;99.90;;;;;;4954407;28;20106;-94
2022/11/11 11:11:59;;;;;;;3.45;1.38;;;14.40;99.90;;;;;;4949685;29;20019;-95
2022/11/11 11:14:42;;;;;;;6.70;1.60;;;14.40;99.90;;;;;;4957109;29;20034;-96
2022/11/11 11:17:15;;;;;;;8.73;1.60;;;14.40;99.90;;;;;;4949201;29;20039;-95
2022/11/11 11:20:09;;;;;;;4.65;1.55;;;14.40;99.90;;;;;;4955424;28;20393;-96
2022/11/11 11:22:56;;;;;;;5.07;1.30;;;14.40;99.90;;;;;;4947755;29;20051;-95
2022/11/11 11:25:28;;;;;;;7.20;2.03;;;14.40;99.90;;;;;;4985662;28;20040;-93
2022/11/11 11:28:05;;;;;;;5.75;2.03;;;14.40;99.90;;;;;;4968919;28;20058;-95
2022/11/11 11:30:56;;;;;;;4.90;1.45;;;14.40;99.90;;;;;;4961346;28;20035;-95
2022/11/11 11:33:26;;;;;;;7.43;1.60;;;14.40;99.90;;;;;;4988138;28;20038;-93
2022/11/11 11:35:52;;;;;;;9.10;1.70;;;14.40;99.90;;;;;;4962338;28;20130;-95
2022/11/11 11:38:21;;;;;;;8.43;1.70;;;14.40;99.90;;;;;;4958692;28;20016;-96
2022/11/11 11:41:18;;;;;;;6.85;1.50;;;14.40;99.90;;;;;;4959226;28;20041;-95
2022/11/11 11:43:46;;;;;;;5.57;1.70;;;14.40;99.90;;;;;;4978958;28;20043;-95
2022/11/11 11:46:25;;;;;;;7.13;2.20;;;14.40;99.90;;;;;;4961672;28;20047;-94
2022/11/11 11:49:21;;;;;;;10.40;2.35;;;14.40;99.90;;;;;;4963144;28;20035;-95
2022/11/11 11:52:11;;;;;;;7.18;1.70;;;14.50;99.90;;;;;;4964681;28;20023;-94
2022/11/11 11:54:47;;;;;;;6.20;1.57;;;14.50;99.90;;;;;;4937806;29;20576;-94
2022/11/11 11:57:41;;;;;;;6.25;1.40;;;14.50;99.90;;;;;;4952539;28;20039;-95
2022/11/11 12:00:20;;;;;;;5.80;1.33;;;14.50;99.90;;;;;;4950359;29;20036;-96
2022/11/11 12:03:19;;;;;;;5.37;1.40;;;14.60;99.90;;;;;;4959744;28;20036;-94
2022/11/11 12:06:01;;;;;;;3.30;1.30;;;14.60;99.90;;;;;;4959185;28;20016;-95
2022/11/11 12:08:38;;;;;;;6.10;1.63;;;14.60;99.90;;;;;;4954351;29;20040;-96
2022/11/11 12:11:17;;;;;;;5.10;1.60;;;14.60;99.90;;;;;;4960123;29;20019;-95
2022/11/11 12:14:07;;;;;;;6.03;2.10;;;14.70;99.90;;;;;;4960604;29;20028;-94
2022/11/11 12:16:52;;;;;;;7.75;1.55;;;14.70;99.90;;;;;;4959398;28;20034;-95
2022/11/11 12:20:15;;;;;;;3.00;1.40;;;14.70;99.90;;;;;;4959062;28;20043;-96
2022/11/11 12:23:12;;;;;;;4.57;1.70;;;14.70;99.90;;;;;;4897430;29;20025;-95
2022/11/11 12:26:16;;;;;;;8.35;2.20;;;14.70;99.90;;;;;;4883901;29;20045;-93
2022/11/11 12:28:50;;;;;;;5.25;1.10;;;14.80;99.90;;;;;;4898993;29;20033;-95
2022/11/11 12:31:44;;;;;;;3.13;0.88;;;14.80;99.90;;;;;;4897866;29;20021;-94
2022/11/11 12:34:16;;;;;;;7.00;1.90;;;14.80;99.90;;;;;;4900391;29;20049;-93
2022/11/11 12:36:50;;;;;;;5.82;1.60;;;14.80;99.90;;;;;;4900667;29;20037;-94
2022/11/11 12:39:48;;;;;;;3.63;1.05;;;14.80;99.90;;;;;;4899200;29;20033;-96
2022/11/11 12:42:21;;;;;;;3.03;1.40;;;14.80;99.90;;;;;;4912449;29;20013;-95
2022/11/11 12:44:50;;;;;;;7.15;1.25;;;14.80;99.90;;;;;;4910920;29;20061;-93
2022/11/11 12:47:48;;;;;;;9.23;1.80;;;14.80;99.90;;;;;;4917351;29;20032;-94
2022/11/11 12:50:28;;;;;;;2.47;1.38;;;14.80;99.90;;;;;;4910463;29;20586;-96
2022/11/11 12:53:01;;;;;;;4.15;1.30;;;14.80;99.90;;;;;;4942517;29;20043;-96
2022/11/11 12:55:38;;;;;;;5.68;1.48;;;14.80;99.90;;;;;;4971646;28;20035;-93
2022/11/11 12:58:15;;;;;;;4.45;1.65;;;14.80;99.90;;;;;;4991519;28;20031;-93
2022/11/11 13:01:09;;;;;;;2.97;1.23;;;14.80;99.90;;;;;;4958127;28;20504;-96
2022/11/11 13:04:13;;;;;;;3.78;1.10;;;14.90;99.90;;;;;;4991154;28;20051;-94
2022/11/11 13:07:01;;;;;;;2.38;1.00;;;14.90;99.90;;;;;;4919978;29;20040;-96
2022/11/11 13:10:07;;;;;;;2.75;0.63;;;14.90;99.90;;;;;;4918728;29;20036;-94
2022/11/11 13:12:44;;;;;;;4.20;1.00;;;14.90;99.90;;;;;;4922741;29;20020;-94
2022/11/11 13:15:24;;;;;;;2.47;0.90;;;15.00;99.90;;;;;;4921340;29;20028;-93
2022/11/11 13:17:51;;;;;;;3.72;0.70;;;15.00;99.90;;;;;;4939580;29;20070;-94
2022/11/11 13:20:31;;;;;;;2.88;0.80;;;15.00;99.90;;;;;;4924458;29;20168;-94
2022/11/11 13:22:57;;;;;;;2.58;0.70;;;15.10;99.90;;;;;;4923199;29;20096;-95
2022/11/11 13:25:27;;;;;;;10.93;1.25;;;15.00;99.90;;;;;;4919931;29;20068;-95
2022/11/11 13:27:59;;;;;;;1.70;0.70;;;15.00;99.90;;;;;;4923400;29;20092;-93
2022/11/11 13:30:36;;;;;;;5.07;0.82;;;15.10;99.90;;;;;;4923136;29;20028;-96
2022/11/11 13:33:18;;;;;;;1.90;0.98;;;15.10;99.90;;;;;;4922537;29;20033;-94
2022/11/11 13:35:51;;;;;;;3.58;0.93;;;15.10;99.90;;;;;;4922351;29;20036;-94
2022/11/11 13:38:32;;;;;;;2.38;0.60;;;15.20;99.90;;;;;;4923306;29;20993;-95
2022/11/11 13:41:05;;;;;;;1.95;0.57;;;15.20;99.90;;;;;;4922596;29;20028;-94
2022/11/11 13:43:42;;;;;;;1.75;0.88;;;15.20;99.90;;;;;;4946561;29;20035;-96
2022/11/11 13:46:23;;;;;;;1.85;0.70;;;15.20;99.90;;;;;;4961189;28;20119;-95
2022/11/11 13:48:48;;;;;;;5.38;1.00;;;15.20;99.90;;;;;;4978148;28;20041;-94
2022/11/11 13:51:23;;;;;;;3.80;0.80;;;15.20;99.90;;;;;;4960722;28;20062;-94
2022/11/11 13:53:49;;;;;;;5.15;1.02;;;15.20;99.90;;;;;;4976513;28;20016;-95
2022/11/11 13:56:31;;;;;;;1.85;0.65;;;15.20;99.90;;;;;;4960974;28;20063;-95
2022/11/11 13:58:58;;;;;;;3.97;1.10;;;15.20;99.90;;;;;;4975727;28;20103;-94
2022/11/11 14:01:35;;;;;;;1.98;0.88;;;15.20;99.90;;;;;;4961873;28;20066;-95
2022/11/11 14:04:04;;;;;;;2.45;0.80;;;15.20;99.90;;;;;;4961422;28;20011;-93
2022/11/11 14:06:33;;;;;;;3.53;0.80;;;15.20;99.90;;;;;;4975749;28;20063;-95
2022/11/11 14:08:59;;;;;;;3.53;1.10;;;15.10;99.90;;;;;;4976403;28;20031;-95
2022/11/11 14:11:25;;;;;;;4.40;0.88;;;15.20;99.90;;;;;;4961393;28;20063;-94
2022/11/11 14:13:52;;;;;;;2.30;0.75;;;15.10;99.90;;;;;;4976016;28;20016;-95
2022/11/11 14:16:33;;;;;;;3.03;0.88;;;15.10;99.90;;;;;;4959211;28;20035;-96
2022/11/11 14:19:15;;;;;;;3.53;0.93;;;15.10;99.90;;;;;;4973999;28;20061;-94
2022/11/11 14:21:45;;;;;;;4.53;1.00;;;15.10;99.90;;;;;;4975440;28;20031;-95
2022/11/11 14:24:23;;;;;;;3.90;0.80;;;15.10;99.90;;;;;;4959375;28;20047;-93
2022/11/11 14:26:58;;;;;;;1.60;0.70;;;15.10;99.90;;;;;;4960041;28;20051;-95